Time;durP1;ratioP1;P1;durP2;ratioP2;P2;SDS_P1;SDS_P2;PMS_P1;PMS_P2;Temp;Humidity;BMP_temperature;BMP_pressure;BME280_temperature;BME280_humidity;BME280_pressure;Samples;Min_cycle;Max_cycle;Signal;HPM_P1;HPM_P2
2021/07/04 00:01:04;;;;;;;3.47;3.17;;;;;;;20.24;53.76;93585.56;5037990;28;19928;-88
2021/07/04 00:03:29;;;;;;;3.67;3.22;;;;;;;20.21;54.14;93604.28;5034049;28;20531;-85
2021/07/04 00:05:55;;;;;;;3.10;2.90;;;;;;;20.00;54.11;93577.81;5017011;28;20218;-90
2021/07/04 00:08:23;;;;;;;4.20;3.80;;;;;;;20.27;53.95;93597.50;5046218;28;20507;-88
2021/07/04 00:11:08;;;;;;;5.75;3.47;;;;;;;20.19;54.08;93591.22;5007712;28;20037;-89
2021/07/04 00:13:40;;;;;;;4.65;4.05;;;;;;;20.04;54.34;93578.66;4999668;28;20045;-88
2021/07/04 00:16:28;;;;;;;4.05;3.65;;;;;;;20.03;54.06;93565.59;5021862;28;20073;-88
2021/07/04 00:18:54;;;;;;;3.50;3.20;;;;;;;20.35;54.29;93619.91;5028361;28;20338;-89
2021/07/04 00:21:20;;;;;;;5.70;3.47;;;;;;;20.26;54.41;93615.53;5050449;28;20031;-89
2021/07/04 00:23:45;;;;;;;4.20;3.80;;;;;;;19.90;54.92;93563.03;5031042;28;20389;-88
2021/07/04 00:26:11;;;;;;;5.03;4.18;;;;;;;19.90;55.05;93567.63;5026251;28;20556;-88
2021/07/04 00:28:45;;;;;;;4.05;3.65;;;;;;;20.17;54.66;93588.13;5045479;28;20032;-91
2021/07/04 00:31:14;;;;;;;3.95;3.55;;;;;;;20.13;54.58;93597.25;4987062;28;20052;-89
2021/07/04 00:33:39;;;;;;;5.25;4.28;;;;;;;19.88;54.67;93551.13;5027148;28;20029;-87
2021/07/04 00:36:09;;;;;;;4.05;3.63;;;;;;;19.86;54.83;93556.06;5047796;28;20040;-85
2021/07/04 00:38:37;;;;;;;5.75;4.20;;;;;;;20.19;55.07;93606.53;5046775;28;20482;-87
2021/07/04 00:41:03;;;;;;;3.85;3.55;;;;;;;20.05;55.09;93584.78;5019304;28;20051;-87
2021/07/04 00:43:30;;;;;;;4.28;3.88;;;;;;;19.83;55.07;93535.31;5036550;28;20033;-86
2021/07/04 00:45:59;;;;;;;3.95;3.60;;;;;;;19.93;54.83;93540.13;5054586;28;20205;-88
2021/07/04 00:48:42;;;;;;;3.80;3.47;;;;;;;20.21;55.20;93588.97;5070506;28;20035;-89
2021/07/04 00:51:09;;;;;;;4.13;3.65;;;;;;;20.08;55.23;93568.78;5063885;28;20048;-87
2021/07/04 00:53:47;;;;;;;4.28;3.72;;;;;;;19.88;55.21;93543.09;5067833;28;20066;-87
2021/07/04 00:56:13;;;;;;;4.72;3.80;;;;;;;19.88;55.38;93537.72;5050267;28;20052;-87
2021/07/04 00:58:46;;;;;;;3.95;3.65;;;;;;;19.96;55.01;93552.03;5070536;28;20434;-90
2021/07/04 01:01:11;;;;;;;4.63;4.22;;;;;;;20.22;54.82;93605.84;5064854;28;20060;-87
2021/07/04 01:03:40;;;;;;;4.32;3.72;;;;;;;20.22;54.60;93595.91;5061025;28;20542;-90
2021/07/04 01:06:27;;;;;;;3.08;2.80;;;;;;;20.07;54.70;93580.63;4955169;28;20124;-86
2021/07/04 01:09:05;;;;;;;3.90;3.45;;;;;;;20.07;54.30;93577.19;5044832;28;20240;-92
2021/07/04 01:11:31;;;;;;;5.18;3.60;;;;;;;20.22;54.58;93597.78;5065919;28;20059;-88
2021/07/04 01:14:03;;;;;;;4.38;3.58;;;;;;;20.09;54.90;93597.13;5048621;28;20182;-90
2021/07/04 01:16:29;;;;;;;4.10;3.53;;;;;;;19.83;55.37;93562.91;5042135;28;20044;-88
2021/07/04 01:18:57;;;;;;;3.88;3.58;;;;;;;19.70;55.52;93560.69;5059986;28;20078;-90
2021/07/04 01:21:24;;;;;;;6.13;3.50;;;;;;;19.95;55.51;93583.44;5066193;28;20020;-86
2021/07/04 01:23:50;;;;;;;3.80;3.50;;;;;;;20.05;55.63;93604.34;5046521;28;20406;-87
2021/07/04 01:26:43;;;;;;;5.78;4.07;;;;;;;19.75;55.97;93566.56;5056138;28;20394;-92
2021/07/04 01:29:08;;;;;;;3.67;3.38;;;;;;;19.83;55.76;93578.22;5015628;28;20041;-86
2021/07/04 01:31:37;;;;;;;3.85;3.55;;;;;;;19.55;56.17;93545.44;5060407;28;20158;-85
2021/07/04 01:34:02;;;;;;;7.38;4.18;;;;;;;19.84;56.06;93563.69;5064520;28;20052;-89
2021/07/04 01:36:59;;;;;;;3.90;3.60;;;;;;;19.88;56.28;93596.72;5070025;28;20036;-93
2021/07/04 01:39:28;;;;;;;5.43;4.40;;;;;;;19.57;56.65;93548.53;5013221;28;20242;-86
2021/07/04 01:41:55;;;;;;;4.88;3.90;;;;;;;19.41;56.83;93549.31;5063261;28;20133;-87
2021/07/04 01:44:21;;;;;;;4.15;3.85;;;;;;;19.60;56.53;93558.56;5033995;28;20075;-87
2021/07/04 01:46:46;;;;;;;5.05;4.65;;;;;;;19.70;56.52;93574.09;5059108;28;20132;-87
2021/07/04 01:49:15;;;;;;;4.38;3.97;;;;;;;19.76;56.42;93589.56;5067444;28;20123;-88
2021/07/04 01:51:46;;;;;;;4.78;4.20;;;;;;;19.56;56.29;93552.34;5051941;28;20082;-91
2021/07/04 01:54:12;;;;;;;4.28;3.72;;;;;;;19.55;56.15;93553.50;5026076;28;20047;-87
2021/07/04 01:56:45;;;;;;;7.60;4.07;;;;;;;19.48;56.41;93561.38;5065286;28;20036;-88
2021/07/04 01:59:13;;;;;;;4.25;3.78;;;;;;;19.29;56.02;93519.97;5067002;28;20033;-89
2021/07/04 02:01:39;;;;;;;4.53;4.13;;;;;;;19.58;55.86;93555.47;5030066;28;20123;-88
2021/07/04 02:04:07;;;;;;;3.95;3.65;;;;;;;19.54;55.74;93562.66;5042297;28;20509;-90
2021/07/04 02:06:33;;;;;;;4.53;4.13;;;;;;;19.62;55.22;93564.34;5066385;28;20020;-83
2021/07/04 02:09:02;;;;;;;4.07;3.60;;;;;;;19.60;55.30;93545.16;5050236;28;20035;-88
2021/07/04 02:11:27;;;;;;;3.78;3.17;;;;;;;19.45;55.20;93525.31;5039478;28;20075;-86
2021/07/04 02:13:55;;;;;;;4.53;3.70;;;;;;;19.60;54.81;93555.88;5041458;28;20106;-88
2021/07/04 02:16:21;;;;;;;5.22;3.90;;;;;;;19.77;54.81;93584.97;5063116;28;20041;-89
2021/07/04 02:18:51;;;;;;;3.25;3.03;;;;;;;19.44;54.84;93524.56;5027074;28;20032;-88
2021/07/04 02:21:19;;;;;;;4.93;3.75;;;;;;;19.41;54.74;93519.84;5028331;28;20090;-88
2021/07/04 02:23:44;;;;;;;4.00;3.55;;;;;;;19.45;54.59;93531.44;5015749;28;20037;-86
2021/07/04 02:26:13;;;;;;;3.85;3.55;;;;;;;19.68;54.15;93549.56;5023688;28;20037;-86
2021/07/04 02:28:38;;;;;;;5.72;3.42;;;;;;;19.64;54.21;93559.44;5041073;28;20518;-84
2021/07/04 02:31:04;;;;;;;5.85;3.83;;;;;;;19.61;54.56;93549.38;5054210;28;20204;-86
2021/07/04 02:33:34;;;;;;;3.90;3.50;;;;;;;19.68;54.56;93552.22;5069315;28;20341;-91
2021/07/04 02:36:03;;;;;;;5.20;3.30;;;;;;;19.59;55.03;93535.59;5048573;28;20053;-90
2021/07/04 02:38:31;;;;;;;3.78;3.47;;;;;;;19.91;54.90;93585.28;5049927;28;20044;-90
2021/07/04 02:41:00;;;;;;;5.78;4.30;;;;;;;19.88;55.02;93577.94;5064165;28;20429;-89
2021/07/04 02:43:26;;;;;;;5.00;4.57;;;;;;;19.74;54.85;93532.81;5042817;28;20526;-90
2021/07/04 02:45:55;;;;;;;4.05;3.65;;;;;;;19.65;54.99;93521.53;5035342;28;20060;-90
2021/07/04 02:48:22;;;;;;;5.13;3.90;;;;;;;19.89;55.13;93561.47;5046968;28;20025;-90
2021/07/04 02:50:49;;;;;;;4.40;4.00;;;;;;;19.57;55.50;93521.75;4982619;28;20642;-85
2021/07/04 02:53:14;;;;;;;5.22;4.72;;;;;;;19.87;55.69;93562.97;5009808;28;20160;-87
2021/07/04 02:55:45;;;;;;;5.45;4.50;;;;;;;19.87;55.90;93552.25;4951454;28;20044;-88
2021/07/04 02:58:19;;;;;;;5.10;4.60;;;;;;;20.07;56.08;93577.97;4962794;28;20067;-87
2021/07/04 03:01:05;;;;;;;7.65;4.40;;;;;;;20.00;55.98;93572.44;5022140;28;20021;-88
2021/07/04 03:03:41;;;;;;;6.07;4.88;;;;;;;20.04;56.40;93581.31;5019373;28;20526;-89
2021/07/04 03:06:06;;;;;;;6.53;4.57;;;;;;;19.75;56.71;93533.59;5025694;28;20513;-86
2021/07/04 03:08:34;;;;;;;4.90;4.38;;;;;;;19.63;56.23;93507.72;5046686;28;20029;-89
2021/07/04 03:10:59;;;;;;;6.63;4.82;;;;;;;19.93;56.25;93548.16;4999817;28;20094;-88
2021/07/04 03:13:25;;;;;;;6.90;5.03;;;;;;;19.74;56.38;93521.34;5027116;28;20044;-84
2021/07/04 03:15:51;;;;;;;5.22;4.72;;;;;;;20.21;55.87;93562.13;5044397;28;20028;-86
2021/07/04 03:18:33;;;;;;;4.88;3.95;;;;;;;20.22;55.37;93542.22;5028330;28;20042;-91
2021/07/04 03:20:59;;;;;;;7.50;4.40;;;;;;;20.49;54.82;93542.34;4952480;28;20103;-86
2021/07/04 03:23:27;;;;;;;6.85;4.47;;;;;;;20.78;53.62;93563.19;5005551;28;20415;-89
2021/07/04 03:26:05;;;;;;;5.72;4.18;;;;;;;20.88;53.23;93546.50;5001648;28;20241;-91
2021/07/04 03:28:31;;;;;;;5.65;4.20;;;;;;;21.15;52.68;93544.66;5022662;28;20163;-90
2021/07/04 03:31:29;;;;;;;;;;;;;;;;;;;;;
2021/07/04 03:33:55;;;;;;;5.32;3.72;;;;;;;22.03;50.93;93597.06;5019747;28;20025;-86
2021/07/04 03:36:20;;;;;;;5.88;4.18;;;;;;;21.91;50.15;93543.44;5042365;28;20052;-83
2021/07/04 03:38:52;;;;;;;5.70;4.68;;;;;;;22.38;49.42;93572.47;5009112;28;20593;-88
2021/07/04 03:41:18;;;;;;;6.95;3.85;;;;;;;22.54;48.53;93558.00;4942536;28;20066;-86
2021/07/04 03:44:01;;;;;;;7.57;3.90;;;;;;;22.92;47.76;93573.06;4943783;28;20117;-84
2021/07/04 03:46:30;;;;;;;7.22;4.38;;;;;;;23.05;47.35;93542.78;5047749;28;20098;-92
2021/07/04 03:49:01;;;;;;;5.43;3.55;;;;;;;23.39;46.35;93559.59;5030910;28;20032;-91
2021/07/04 03:51:28;;;;;;;4.03;3.63;;;;;;;23.79;45.61;93547.94;5052628;28;20524;-91
2021/07/04 03:53:53;;;;;;;5.35;3.60;;;;;;;23.91;45.58;93588.09;5043685;28;20475;-86
2021/07/04 03:56:22;;;;;;;4.28;3.88;;;;;;;24.14;45.21;93609.44;5048892;28;20033;-88
2021/07/04 03:58:48;;;;;;;4.40;3.75;;;;;;;24.42;44.47;93554.78;5038511;28;20041;-86
2021/07/04 04:01:20;;;;;;;9.90;3.70;;;;;;;24.72;43.62;93570.69;5025664;28;20044;-90
2021/07/04 04:03:51;;;;;;;3.80;3.40;;;;;;;25.24;42.98;93609.81;5037716;28;20434;-92
2021/07/04 04:06:22;;;;;;;6.15;4.15;;;;;;;25.72;41.96;93594.78;5040734;28;20636;-91
2021/07/04 04:08:47;;;;;;;3.53;3.15;;;;;;;25.71;41.32;93582.41;5010800;28;20148;-88
2021/07/04 04:11:18;;;;;;;4.40;3.67;;;;;;;26.03;41.40;93601.31;5030347;28;20123;-87
2021/07/04 04:13:44;;;;;;;3.97;3.25;;;;;;;26.06;40.40;93546.34;5006587;28;20033;-86
2021/07/04 04:16:12;;;;;;;3.95;3.65;;;;;;;26.46;39.94;93574.09;5041029;28;20033;-92
2021/07/04 04:18:38;;;;;;;5.95;3.58;;;;;;;27.09;39.57;93594.69;5032090;28;20513;-91
2021/07/04 04:21:35;;;;;;;6.43;3.63;;;;;;;26.86;38.74;93551.84;5034109;28;20044;-88
2021/07/04 04:24:01;;;;;;;4.63;3.30;;;;;;;27.08;38.22;93538.91;5042726;28;20036;-91
2021/07/04 04:26:27;;;;;;;3.78;3.25;;;;;;;27.54;38.12;93584.72;5034764;28;20574;-88
2021/07/04 04:28:52;;;;;;;3.65;3.30;;;;;;;27.69;37.30;93564.41;5040934;28;20086;-86
2021/07/04 04:31:18;;;;;;;6.03;3.38;;;;;;;27.89;36.58;93557.25;5045355;28;20124;-88
2021/07/04 04:33:44;;;;;;;6.50;3.72;;;;;;;28.61;35.73;93577.03;5030305;28;20036;-86
2021/07/04 04:36:16;;;;;;;4.57;3.13;;;;;;;28.93;35.27;93554.13;5048652;28;20470;-89
2021/07/04 04:38:50;;;;;;;3.97;3.47;;;;;;;29.24;34.71;93569.19;4982965;28;20050;-88
2021/07/04 04:41:25;;;;;;;5.18;3.28;;;;;;;29.54;33.85;93560.97;5043124;28;20099;-91
2021/07/04 04:44:23;;;;;;;4.25;3.85;;;;;;;29.99;33.46;93585.13;4996863;28;20049;-90
2021/07/04 04:46:49;;;;;;;4.03;3.15;;;;;;;30.85;32.99;93624.00;5055152;28;20115;-88
2021/07/04 04:49:14;;;;;;;3.15;2.72;;;;;;;30.70;32.69;93590.00;5046522;28;20044;-89
2021/07/04 04:51:43;;;;;;;8.25;4.15;;;;;;;31.09;32.22;93602.84;5058153;28;20107;-89
2021/07/04 04:54:09;;;;;;;4.25;3.33;;;;;;;31.16;31.76;93588.28;5015826;28;20048;-88
2021/07/04 04:56:38;;;;;;;4.35;3.25;;;;;;;31.71;31.13;93595.63;5041177;28;20659;-84
2021/07/04 04:59:03;;;;;;;2.80;2.60;;;;;;;31.91;31.01;93598.25;5068210;28;20035;-88
2021/07/04 05:01:29;;;;;;;3.33;3.03;;;;;;;32.25;30.47;93577.44;5000945;28;20446;-87
2021/07/04 05:03:58;;;;;;;3.90;3.42;;;;;;;32.20;29.69;93591.66;4998733;28;20038;-87
2021/07/04 05:06:27;;;;;;;3.15;2.85;;;;;;;32.12;30.31;93582.09;4967276;28;20650;-86
2021/07/04 05:08:52;;;;;;;5.00;3.15;;;;;;;32.46;29.65;93622.59;5008081;28;20656;-88
2021/07/04 05:11:18;;;;;;;5.20;3.13;;;;;;;32.61;29.14;93601.09;4988479;28;20086;-88
2021/07/04 05:13:46;;;;;;;3.38;3.08;;;;;;;32.54;29.00;93598.56;5051764;28;20031;-86
2021/07/04 05:16:25;;;;;;;3.40;2.97;;;;;;;32.09;29.90;93610.28;5052501;28;20032;-90
2021/07/04 05:18:50;;;;;;;3.60;3.30;;;;;;;32.43;29.48;93579.72;5049314;28;20504;-89
2021/07/04 05:21:16;;;;;;;4.63;3.60;;;;;;;32.22;29.50;93591.97;5067107;28;20060;-87
2021/07/04 05:23:44;;;;;;;4.13;3.10;;;;;;;31.95;29.78;93598.94;5056704;28;20033;-88
2021/07/04 05:26:10;;;;;;;4.30;3.50;;;;;;;31.49;30.44;93613.66;5040793;28;20102;-92
2021/07/04 05:28:38;;;;;;;6.03;3.50;;;;;;;30.82;31.64;93591.34;5025642;28;20626;-86
2021/07/04 05:31:04;;;;;;;2.88;2.58;;;;;;;31.89;29.98;93622.50;5049614;28;20677;-88
2021/07/04 05:33:30;;;;;;;5.55;3.65;;;;;;;32.77;29.55;93609.28;5051125;28;20341;-88
2021/07/04 05:35:55;;;;;;;4.50;3.22;;;;;;;32.73;28.75;93603.16;5064921;28;20036;-88
2021/07/04 05:38:22;;;;;;;3.75;3.33;;;;;;;32.76;28.70;93601.50;5048235;28;20073;-86
2021/07/04 05:40:49;;;;;;;3.53;3.22;;;;;;;32.71;28.98;93632.91;5065542;28;20048;-87
2021/07/04 05:43:19;;;;;;;4.10;2.97;;;;;;;32.65;28.87;93631.88;5036688;28;20068;-88
2021/07/04 05:45:44;;;;;;;6.03;3.10;;;;;;;32.90;28.80;93603.81;5065067;28;20051;-88
2021/07/04 05:48:11;;;;;;;6.85;3.25;;;;;;;32.97;28.19;93618.09;5052896;28;20020;-87
2021/07/04 05:50:36;;;;;;;2.80;2.60;;;;;;;33.32;28.40;93623.75;5048694;28;20099;-88
2021/07/04 05:53:08;;;;;;;6.10;3.35;;;;;;;33.66;27.81;93645.78;5038935;28;20048;-90
2021/07/04 05:55:37;;;;;;;3.28;2.97;;;;;;;33.40;27.81;93611.34;5024206;28;20079;-90
2021/07/04 05:58:05;;;;;;;3.47;2.80;;;;;;;33.88;26.95;93605.53;5035639;28;21778;-88
2021/07/04 06:00:31;;;;;;;3.38;2.85;;;;;;;34.09;27.39;93600.56;5066373;28;20039;-87
2021/07/04 06:02:59;;;;;;;3.50;3.00;;;;;;;34.84;26.81;93626.22;5065044;28;20044;-88
2021/07/04 06:05:25;;;;;;;2.97;2.60;;;;;;;35.01;25.95;93605.56;5059595;28;20044;-87
2021/07/04 06:07:51;;;;;;;2.92;2.63;;;;;;;35.46;25.78;93611.31;5048288;28;20103;-87
2021/07/04 06:10:16;;;;;;;3.40;2.45;;;;;;;35.64;25.80;93638.09;5035363;28;20101;-87
2021/07/04 06:12:45;;;;;;;5.30;3.20;;;;;;;34.99;25.95;93597.03;5057599;28;20032;-89
2021/07/04 06:15:14;;;;;;;4.13;2.90;;;;;;;35.84;25.77;93638.53;5065746;28;20572;-89
2021/07/04 06:17:42;;;;;;;3.25;2.95;;;;;;;36.64;25.04;93591.59;5045571;28;20736;-89
2021/07/04 06:20:13;;;;;;;3.40;2.75;;;;;;;37.77;24.43;93634.53;5066150;28;20464;-88
2021/07/04 06:22:41;;;;;;;3.85;2.97;;;;;;;37.72;22.99;93627.66;5011185;28;20052;-86
2021/07/04 06:25:12;;;;;;;3.88;2.63;;;;;;;37.86;22.89;93626.97;5044543;28;20174;-87
2021/07/04 06:27:39;;;;;;;6.78;3.40;;;;;;;38.60;22.31;93625.31;5049617;28;20048;-85
2021/07/04 06:30:11;;;;;;;6.35;3.38;;;;;;;38.51;22.38;93593.00;5022379;28;20120;-90
2021/07/04 06:32:38;;;;;;;4.70;3.38;;;;;;;38.48;22.29;93640.88;4988061;28;20049;-87
2021/07/04 06:35:06;;;;;;;3.72;2.78;;;;;;;38.43;22.18;93638.75;5060350;28;20154;-86
2021/07/04 06:37:33;;;;;;;5.30;3.60;;;;;;;38.07;21.97;93592.81;5043863;28;20538;-88
2021/07/04 06:40:13;;;;;;;3.35;2.90;;;;;;;38.83;21.92;93630.03;4986317;28;20115;-89
2021/07/04 06:43:04;;;;;;;3.58;3.13;;;;;;;38.99;21.90;93590.91;4993736;28;20051;-92
2021/07/04 06:45:45;;;;;;;5.05;2.78;;;;;;;39.84;21.19;93596.56;4910956;28;20138;-84
2021/07/04 06:48:14;;;;;;;3.80;2.92;;;;;;;39.59;20.13;93622.81;4978767;28;20573;-85
2021/07/04 06:50:39;;;;;;;3.53;2.78;;;;;;;39.45;20.64;93622.84;5041411;28;20142;-82
2021/07/04 06:53:05;;;;;;;3.08;2.78;;;;;;;39.63;20.78;93634.47;5059464;28;20074;-81
2021/07/04 06:55:31;;;;;;;3.25;2.95;;;;;;;39.71;20.51;93634.84;5039162;28;20051;-80
2021/07/04 06:57:56;;;;;;;3.38;2.75;;;;;;;39.95;20.90;93634.72;5068334;28;20485;-80
2021/07/04 07:00:22;;;;;;;4.60;2.95;;;;;;;40.26;20.41;93629.41;5070358;28;20444;-81
2021/07/04 07:02:47;;;;;;;3.88;2.70;;;;;;;40.55;20.42;93618.19;5064926;28;20379;-81
2021/07/04 07:05:14;;;;;;;4.80;3.15;;;;;;;40.16;20.17;93630.75;5065850;28;20523;-81
2021/07/04 07:07:40;;;;;;;3.38;3.08;;;;;;;40.00;19.80;93620.19;5067055;28;20028;-81
2021/07/04 07:10:13;;;;;;;4.47;3.15;;;;;;;39.98;20.46;93631.00;5064989;28;20032;-80
2021/07/04 07:12:39;;;;;;;3.40;3.05;;;;;;;40.05;20.26;93613.97;5026840;28;20442;-81
2021/07/04 07:15:09;;;;;;;4.03;3.67;;;;;;;40.59;19.78;93610.41;5037798;28;20197;-79
2021/07/04 07:17:34;;;;;;;3.92;2.92;;;;;;;41.13;19.32;93613.56;5056398;28;20533;-78
2021/07/04 07:20:00;;;;;;;5.05;3.45;;;;;;;40.88;19.00;93617.06;5065205;28;20052;-79
2021/07/04 07:22:25;;;;;;;3.08;2.78;;;;;;;40.63;19.85;93613.75;5047311;28;20447;-79
2021/07/04 07:24:51;;;;;;;4.60;3.05;;;;;;;40.73;19.72;93621.91;5064336;28;20039;-80
2021/07/04 07:27:17;;;;;;;5.25;2.90;;;;;;;40.78;19.35;93610.91;5064889;28;20058;-79
2021/07/04 07:29:43;;;;;;;5.63;3.53;;;;;;;40.15;19.66;93613.38;5064563;28;20082;-79
2021/07/04 07:32:08;;;;;;;4.22;3.03;;;;;;;40.71;19.75;93613.34;5045850;28;20498;-80
2021/07/04 07:34:34;;;;;;;3.45;3.08;;;;;;;41.46;18.90;93611.09;5064131;28;20032;-80
2021/07/04 07:36:59;;;;;;;3.08;2.88;;;;;;;42.11;18.93;93613.34;5050073;28;20040;-79
2021/07/04 07:39:25;;;;;;;5.80;3.10;;;;;;;40.74;18.99;93613.13;5065494;28;20028;-80
2021/07/04 07:41:51;;;;;;;3.92;3.00;;;;;;;41.44;19.32;93612.84;5064027;28;20722;-80
2021/07/04 07:44:17;;;;;;;3.22;2.70;;;;;;;41.37;18.60;93605.72;5060277;28;20483;-80
2021/07/04 07:46:45;;;;;;;3.63;3.22;;;;;;;41.05;19.60;93602.13;5063900;28;20029;-79
2021/07/04 07:49:11;;;;;;;4.82;2.65;;;;;;;41.46;19.04;93616.66;5048388;28;20045;-79
2021/07/04 07:51:37;;;;;;;3.72;3.30;;;;;;;42.06;19.15;93609.28;5056414;28;20490;-80
2021/07/04 07:54:03;;;;;;;6.30;2.95;;;;;;;42.21;18.38;93612.66;5064558;28;20046;-80
2021/07/04 07:56:29;;;;;;;4.45;3.28;;;;;;;41.49;18.81;93612.88;5068515;28;20735;-78
2021/07/04 07:58:54;;;;;;;6.90;3.40;;;;;;;40.55;19.56;93609.09;5067826;28;20139;-79
2021/07/04 08:01:20;;;;;;;8.65;3.50;;;;;;;40.13;20.74;93609.53;5064732;28;20471;-79
2021/07/04 08:03:45;;;;;;;6.03;3.03;;;;;;;39.86;19.79;93607.16;5064918;28;20040;-80
2021/07/04 08:06:11;;;;;;;4.85;2.90;;;;;;;39.44;19.83;93597.19;5053605;28;20559;-79
2021/07/04 08:08:36;;;;;;;24.73;4.85;;;;;;;38.70;21.16;93604.69;5067383;28;20410;-78
2021/07/04 08:11:07;;;;;;;6.63;3.83;;;;;;;38.10;21.50;93607.69;5061970;28;20048;-78
2021/07/04 08:13:32;;;;;;;9.95;3.25;;;;;;;38.17;22.32;93612.09;5062932;28;20051;-79
2021/07/04 08:15:58;;;;;;;3.47;3.10;;;;;;;39.23;21.11;93592.81;5070385;28;20029;-82
2021/07/04 08:18:24;;;;;;;4.55;3.28;;;;;;;40.09;20.21;93593.16;5052814;28;20023;-78
2021/07/04 08:20:51;;;;;;;6.60;3.38;;;;;;;40.50;20.58;93591.19;5051081;28;20071;-79
2021/07/04 08:23:17;;;;;;;2.70;2.50;;;;;;;39.96;20.49;93594.75;5066616;28;20048;-79
2021/07/04 08:25:43;;;;;;;3.88;3.58;;;;;;;39.29;21.22;93599.22;5066556;28;20126;-79
2021/07/04 08:28:09;;;;;;;7.30;3.17;;;;;;;38.91;21.14;93600.81;5067196;28;20036;-78
2021/07/04 08:30:34;;;;;;;4.22;2.80;;;;;;;39.31;20.60;93585.66;5069101;28;20031;-78
2021/07/04 08:33:00;;;;;;;5.43;2.70;;;;;;;40.29;20.55;93588.91;5050434;28;20433;-79
2021/07/04 08:35:25;;;;;;;4.00;2.95;;;;;;;40.13;20.36;93598.47;5065961;28;20036;-79
2021/07/04 08:37:51;;;;;;;7.57;3.30;;;;;;;39.80;20.61;93593.25;5067428;28;20040;-78
2021/07/04 08:40:16;;;;;;;5.28;3.55;;;;;;;39.55;20.86;93585.56;5054109;28;20090;-79
2021/07/04 08:42:42;;;;;;;4.10;2.92;;;;;;;39.77;20.60;93586.69;5051454;28;20020;-79
2021/07/04 08:45:08;;;;;;;5.03;2.88;;;;;;;38.69;21.55;93597.63;5067658;28;20562;-79
2021/07/04 08:47:33;;;;;;;5.45;3.45;;;;;;;36.69;23.51;93598.47;5054754;28;20052;-79
2021/07/04 08:49:59;;;;;;;3.92;3.25;;;;;;;36.78;24.25;93584.69;5066937;28;20031;-80
2021/07/04 08:52:24;;;;;;;3.58;3.22;;;;;;;37.08;24.00;93585.72;5068207;28;20574;-79
2021/07/04 08:54:50;;;;;;;4.72;3.65;;;;;;;36.46;23.89;93578.56;5049216;28;20017;-80
2021/07/04 08:57:19;;;;;;;3.63;3.28;;;;;;;35.66;23.63;93568.97;5067426;28;20030;-79
2021/07/04 08:59:47;;;;;;;6.28;3.45;;;;;;;36.07;24.45;93576.69;5067696;28;20111;-80
2021/07/04 09:02:28;;;;;;;3.03;2.60;;;;;;;36.99;23.27;93578.22;5065311;28;20036;-79
2021/07/04 09:05:12;;;;;;;3.22;2.30;;;;;;;36.83;22.72;93575.81;5066416;28;20036;-79
2021/07/04 09:07:39;;;;;;;3.22;2.92;;;;;;;37.16;21.72;93575.91;5066902;28;20084;-79
2021/07/04 09:10:13;;;;;;;5.57;2.10;;;;;;;37.06;21.17;93577.91;5068627;28;20158;-79
2021/07/04 09:12:43;;;;;;;;;;;;;;;36.46;20.89;93577.78;5068821;28;20458;-79
2021/07/04 09:15:26;;;;;;;2.38;2.03;;;;;;;36.55;21.17;93577.81;5066959;28;19912;-79
2021/07/04 09:17:57;;;;;;;3.00;1.95;;;;;;;36.72;21.40;93572.75;5064598;28;20584;-78
2021/07/04 09:20:42;;;;;;;2.85;2.05;;;;;;;35.35;21.47;93567.00;5064805;28;20043;-78
2021/07/04 09:23:08;;;;;;;2.20;1.95;;;;;;;34.81;22.83;93566.72;5050379;28;20053;-79
2021/07/04 09:25:40;;;;;;;2.45;2.22;;;;;;;34.45;24.00;93562.50;5048208;28;20043;-79
2021/07/04 09:28:16;;;;;;;1.77;1.60;;;;;;;34.09;24.26;93562.94;5066685;28;20089;-79
2021/07/04 09:30:46;;;;;;;4.60;2.22;;;;;;;33.37;24.69;93571.16;5066917;28;20529;-78
2021/07/04 09:33:14;;;;;;;2.33;2.13;;;;;;;32.86;24.89;93562.09;5065361;28;20040;-78
2021/07/04 09:35:55;;;;;;;3.60;2.40;;;;;;;32.41;26.01;93559.44;5067011;28;20126;-79
2021/07/04 09:38:21;;;;;;;3.80;2.70;;;;;;;32.21;26.30;93554.91;5064234;28;20040;-80
2021/07/04 09:40:49;;;;;;;2.78;2.40;;;;;;;32.00;26.75;93544.53;5052952;28;20033;-80
2021/07/04 09:43:16;;;;;;;3.65;2.13;;;;;;;32.23;27.65;93559.94;5064794;28;20526;-78
2021/07/04 09:45:49;;;;;;;3.80;2.28;;;;;;;32.08;25.92;93565.00;5063755;28;20036;-78
2021/07/04 09:48:29;;;;;;;2.90;2.38;;;;;;;32.20;27.04;93549.88;5064242;28;20060;-79
2021/07/04 09:51:01;;;;;;;5.88;2.20;;;;;;;32.01;27.43;93558.97;5055214;28;20480;-79
2021/07/04 09:53:37;;;;;;;4.60;1.73;;;;;;;31.69;25.24;93549.59;5065518;28;20040;-78
2021/07/04 09:56:08;;;;;;;2.50;1.88;;;;;;;31.44;25.94;93543.94;5065280;28;20044;-79
2021/07/04 09:58:34;;;;;;;3.83;1.63;;;;;;;31.49;25.81;93537.19;5063263;28;20490;-79
2021/07/04 10:01:00;;;;;;;3.97;1.75;;;;;;;31.69;26.72;93543.38;5066124;28;20066;-80
2021/07/04 10:03:26;;;;;;;3.25;2.33;;;;;;;31.82;26.91;93536.00;5067584;28;20071;-81
2021/07/04 10:05:54;;;;;;;4.63;2.28;;;;;;;31.93;27.24;93536.50;5067611;28;20131;-80
2021/07/04 10:08:34;;;;;;;2.88;2.42;;;;;;;31.51;26.95;93532.88;5065112;28;20682;-79
2021/07/04 10:11:15;;;;;;;4.55;2.30;;;;;;;31.41;26.72;93528.44;5064760;28;20521;-80
2021/07/04 10:13:43;;;;;;;3.45;2.35;;;;;;;31.36;27.48;93537.13;5065463;28;20544;-79
2021/07/04 10:16:15;;;;;;;3.15;1.98;;;;;;;31.23;27.77;93525.34;5065644;28;20094;-79
2021/07/04 10:18:43;;;;;;;4.25;2.58;;;;;;;31.19;27.51;93519.97;5047527;28;20098;-80
2021/07/04 10:21:09;;;;;;;2.58;2.38;;;;;;;31.15;28.70;93518.50;5064774;28;20676;-80
2021/07/04 10:23:35;;;;;;;4.53;3.03;;;;;;;31.22;27.98;93513.66;5063860;28;20032;-79
2021/07/04 10:26:02;;;;;;;4.72;2.60;;;;;;;31.25;27.60;93509.31;5067173;28;20053;-79
2021/07/04 10:28:36;;;;;;;4.03;2.75;;;;;;;31.14;26.69;93511.50;5066518;28;20102;-81
2021/07/04 10:31:09;;;;;;;;;;;;;;;30.70;28.03;93513.63;5064054;28;20033;-80
2021/07/04 10:33:35;;;;;;;3.95;3.45;;;;;;;30.44;28.65;93512.63;5069805;28;19921;-81
2021/07/04 10:36:05;;;;;;;5.28;2.85;;;;;;;30.40;29.69;93514.63;5045650;28;20051;-81
2021/07/04 10:38:54;;;;;;;4.47;3.50;;;;;;;30.53;28.91;93514.81;5065421;28;20524;-81
2021/07/04 10:41:25;;;;;;;7.68;3.58;;;;;;;30.40;29.22;93511.13;5065095;28;20036;-82
2021/07/04 10:43:58;;;;;;;3.50;3.10;;;;;;;30.31;29.94;93503.53;5057489;28;20191;-82
2021/07/04 10:46:49;;;;;;;4.07;3.70;;;;;;;30.30;30.16;93512.13;5063982;28;20049;-81
2021/07/04 10:49:20;;;;;;;4.07;3.40;;;;;;;30.29;30.21;93495.00;5063575;28;20040;-81
2021/07/04 10:52:00;;;;;;;4.00;3.67;;;;;;;30.10;31.18;93493.81;5064612;28;20052;-81
2021/07/04 10:54:45;;;;;;;9.07;4.15;;;;;;;30.11;30.42;93497.31;5049838;28;20020;-81
2021/07/04 10:57:31;;;;;;;9.00;4.45;;;;;;;30.11;31.46;93489.91;5063514;28;20470;-82
2021/07/04 11:00:06;;;;;;;4.15;3.70;;;;;;;30.17;30.68;93487.47;5066493;28;20145;-82
2021/07/04 11:02:54;;;;;;;5.60;3.85;;;;;;;30.07;30.54;93488.44;5054437;28;20498;-81
2021/07/04 11:05:41;;;;;;;6.07;3.88;;;;;;;30.00;31.53;93488.59;5062368;28;20044;-83
2021/07/04 11:08:11;;;;;;;8.10;4.07;;;;;;;30.04;32.22;93494.72;5055800;28;20052;-78
2021/07/04 11:10:49;;;;;;;4.65;3.58;;;;;;;30.22;31.44;93484.25;5068520;28;20032;-81
2021/07/04 11:13:15;;;;;;;4.15;3.85;;;;;;;30.23;30.96;93493.97;5064506;28;20040;-81
2021/07/04 11:15:44;;;;;;;4.47;4.07;;;;;;;30.06;31.24;93476.00;5067078;28;20335;-81
2021/07/04 11:18:12;;;;;;;5.47;4.53;;;;;;;30.22;31.78;93497.88;5065371;28;20048;-82
2021/07/04 11:20:41;;;;;;;4.70;4.30;;;;;;;30.20;31.39;93486.63;5066621;28;20047;-81
2021/07/04 11:23:30;;;;;;;7.25;3.58;;;;;;;30.16;31.41;93485.91;5065343;28;20045;-81
2021/07/04 11:26:11;;;;;;;5.60;3.97;;;;;;;30.30;31.23;93476.72;5065275;28;20040;-81
2021/07/04 11:28:48;;;;;;;4.47;3.40;;;;;;;30.25;31.44;93472.50;5047523;28;20048;-81
2021/07/04 11:31:17;;;;;;;4.22;3.83;;;;;;;30.30;31.00;93474.72;5065740;28;20039;-81
2021/07/04 11:33:53;;;;;;;4.55;3.80;;;;;;;30.31;30.56;93475.50;5064280;28;20109;-81
2021/07/04 11:36:26;;;;;;;4.60;4.20;;;;;;;30.20;31.05;93453.94;5065830;28;20020;-78
2021/07/04 11:38:54;;;;;;;4.03;3.65;;;;;;;30.22;31.95;93478.03;5064449;28;20040;-79
2021/07/04 11:41:23;;;;;;;4.72;4.25;;;;;;;30.21;31.07;93471.03;5061621;28;20044;-79
2021/07/04 11:43:50;;;;;;;4.05;3.70;;;;;;;30.10;31.32;93472.00;5048782;28;20040;-81
2021/07/04 11:46:18;;;;;;;7.20;3.60;;;;;;;30.19;31.93;93474.19;5056271;28;20059;-79